<?xml version="1.0" encoding="UTF-8" standalone="no" ?>
<gpx xmlns="http://www.topografix.com/GPX/1/1" xmlns:xsi="http://www.w3.org/2001/XMLSchema-instance" xsi:schemaLocation="http://www.topografix.com/GPX/1/1 http://www.topografix.com/GPX/1/1/gpx.xsd" version="1.1" creator="VisuGPX - https://www.visugpx.com">
  <metadata>
    <name>Prepa MegaRando</name>
    <desc><![CDATA[Total: 4.9km]]></desc>
  </metadata>
  <trk>
    <name><![CDATA[NewTrack]]></name>
    <desc><![CDATA[Total: 4.9km]]></desc>
    <extensions>
      <line xmlns="http://www.topografix.com/GPX/gpx_style/0/2">
        <color>0000FF</color>
        <width>4</width>
      </line>
    </extensions>
    <trkseg>
      <trkpt lat="44.76527" lon="-0.17074">
        <ele>58</ele>
        <time>2016-09-27T08:42:22Z</time>
      </trkpt>
      <trkpt lat="44.7655" lon="-0.17065">
        <ele>57.2</ele>
        <time>2016-09-27T08:42:37Z</time>
      </trkpt>
      <trkpt lat="44.76567" lon="-0.17077">
        <ele>56.6</ele>
        <time>2016-09-27T08:42:50Z</time>
      </trkpt>
      <trkpt lat="44.76592" lon="-0.17078">
        <ele>55.7</ele>
        <time>2016-09-27T08:43:07Z</time>
      </trkpt>
      <trkpt lat="44.76619" lon="-0.17073">
        <ele>54.7</ele>
        <time>2016-09-27T08:43:25Z</time>
      </trkpt>
      <trkpt lat="44.76587" lon="-0.16964">
        <ele>56.3</ele>
        <time>2016-09-27T08:44:21Z</time>
      </trkpt>
      <trkpt lat="44.76561" lon="-0.16899">
        <ele>56.5</ele>
        <time>2016-09-27T08:44:56Z</time>
      </trkpt>
      <trkpt lat="44.76525" lon="-0.16845">
        <ele>58.2</ele>
        <time>2016-09-27T08:45:32Z</time>
      </trkpt>
      <trkpt lat="44.7649" lon="-0.16853">
        <ele>60.6</ele>
        <time>2016-09-27T08:45:55Z</time>
      </trkpt>
      <trkpt lat="44.76441" lon="-0.16861">
        <ele>63.1</ele>
        <time>2016-09-27T08:46:28Z</time>
      </trkpt>
      <trkpt lat="44.76431" lon="-0.16859">
        <ele>63.5</ele>
        <time>2016-09-27T08:46:35Z</time>
      </trkpt>
      <trkpt lat="44.7642" lon="-0.16853">
        <ele>63.9</ele>
        <time>2016-09-27T08:46:42Z</time>
      </trkpt>
      <trkpt lat="44.7632" lon="-0.16724">
        <ele>63.5</ele>
        <time>2016-09-27T08:48:13Z</time>
      </trkpt>
      <trkpt lat="44.76157" lon="-0.16588">
        <ele>61.5</ele>
        <time>2016-09-27T08:50:19Z</time>
      </trkpt>
      <trkpt lat="44.76155" lon="-0.16515">
        <ele>64</ele>
        <time>2016-09-27T08:50:54Z</time>
      </trkpt>
      <trkpt lat="44.76158" lon="-0.16446">
        <ele>66.3</ele>
        <time>2016-09-27T08:51:27Z</time>
      </trkpt>
      <trkpt lat="44.76165" lon="-0.16394">
        <ele>66.9</ele>
        <time>2016-09-27T08:51:52Z</time>
      </trkpt>
      <trkpt lat="44.76197" lon="-0.16378">
        <ele>67.7</ele>
        <time>2016-09-27T08:52:14Z</time>
      </trkpt>
      <trkpt lat="44.7621" lon="-0.16368">
        <ele>67.8</ele>
        <time>2016-09-27T08:52:25Z</time>
      </trkpt>
      <trkpt lat="44.76225" lon="-0.16348">
        <ele>68.1</ele>
        <time>2016-09-27T08:52:38Z</time>
      </trkpt>
      <trkpt lat="44.76247" lon="-0.16297">
        <ele>68.5</ele>
        <time>2016-09-27T08:53:07Z</time>
      </trkpt>
      <trkpt lat="44.76255" lon="-0.16286">
        <ele>68.4</ele>
        <time>2016-09-27T08:53:14Z</time>
      </trkpt>
      <trkpt lat="44.76266" lon="-0.16293">
        <ele>68.8</ele>
        <time>2016-09-27T08:53:22Z</time>
      </trkpt>
      <trkpt lat="44.76303" lon="-0.1628">
        <ele>69</ele>
        <time>2016-09-27T08:53:48Z</time>
      </trkpt>
      <trkpt lat="44.7634" lon="-0.16255">
        <ele>69</ele>
        <time>2016-09-27T08:54:15Z</time>
      </trkpt>
      <trkpt lat="44.76397" lon="-0.16227">
        <ele>68.5</ele>
        <time>2016-09-27T08:54:55Z</time>
      </trkpt>
      <trkpt lat="44.76446" lon="-0.16195">
        <ele>68.9</ele>
        <time>2016-09-27T08:55:31Z</time>
      </trkpt>
      <trkpt lat="44.76499" lon="-0.16169">
        <ele>68.8</ele>
        <time>2016-09-27T08:56:09Z</time>
      </trkpt>
      <trkpt lat="44.76509" lon="-0.16161">
        <ele>68.7</ele>
        <time>2016-09-27T08:56:16Z</time>
      </trkpt>
      <trkpt lat="44.76517" lon="-0.16146">
        <ele>68.8</ele>
        <time>2016-09-27T08:56:25Z</time>
      </trkpt>
      <trkpt lat="44.76522" lon="-0.16128">
        <ele>69.1</ele>
        <time>2016-09-27T08:56:34Z</time>
      </trkpt>
      <trkpt lat="44.76522" lon="-0.16109">
        <ele>69.3</ele>
        <time>2016-09-27T08:56:43Z</time>
      </trkpt>
      <trkpt lat="44.76524" lon="-0.16042">
        <ele>70.6</ele>
        <time>2016-09-27T08:57:15Z</time>
      </trkpt>
      <trkpt lat="44.76529" lon="-0.16022">
        <ele>71.2</ele>
        <time>2016-09-27T08:57:25Z</time>
      </trkpt>
      <trkpt lat="44.76536" lon="-0.16004">
        <ele>71.9</ele>
        <time>2016-09-27T08:57:35Z</time>
      </trkpt>
      <trkpt lat="44.76545" lon="-0.1599">
        <ele>72</ele>
        <time>2016-09-27T08:57:44Z</time>
      </trkpt>
      <trkpt lat="44.76556" lon="-0.15978">
        <ele>72</ele>
        <time>2016-09-27T08:57:53Z</time>
      </trkpt>
      <trkpt lat="44.76576" lon="-0.15959">
        <ele>72.9</ele>
        <time>2016-09-27T08:58:09Z</time>
      </trkpt>
      <trkpt lat="44.76591" lon="-0.15948">
        <ele>72.7</ele>
        <time>2016-09-27T08:58:21Z</time>
      </trkpt>
      <trkpt lat="44.76624" lon="-0.15928">
        <ele>72.1</ele>
        <time>2016-09-27T08:58:44Z</time>
      </trkpt>
      <trkpt lat="44.76648" lon="-0.1591">
        <ele>70.7</ele>
        <time>2016-09-27T08:59:03Z</time>
      </trkpt>
      <trkpt lat="44.7666" lon="-0.15897">
        <ele>70.3</ele>
        <time>2016-09-27T08:59:13Z</time>
      </trkpt>
      <trkpt lat="44.76682" lon="-0.15864">
        <ele>68.9</ele>
        <time>2016-09-27T08:59:34Z</time>
      </trkpt>
      <trkpt lat="44.76726" lon="-0.15847">
        <ele>67.3</ele>
        <time>2016-09-27T09:00:05Z</time>
      </trkpt>
      <trkpt lat="44.76688" lon="-0.16029">
        <ele>69.2</ele>
        <time>2016-09-27T09:01:35Z</time>
      </trkpt>
      <trkpt lat="44.76686" lon="-0.16057">
        <ele>69.3</ele>
        <time>2016-09-27T09:01:48Z</time>
      </trkpt>
      <trkpt lat="44.76692" lon="-0.16255">
        <ele>66.7</ele>
        <time>2016-09-27T09:03:23Z</time>
      </trkpt>
      <trkpt lat="44.76697" lon="-0.16316">
        <ele>64.6</ele>
        <time>2016-09-27T09:03:52Z</time>
      </trkpt>
      <trkpt lat="44.76685" lon="-0.16469">
        <ele>58.9</ele>
        <time>2016-09-27T09:05:05Z</time>
      </trkpt>
      <trkpt lat="44.76748" lon="-0.16502">
        <ele>60.9</ele>
        <time>2016-09-27T09:05:49Z</time>
      </trkpt>
      <trkpt lat="44.76758" lon="-0.16515">
        <ele>60.5</ele>
        <time>2016-09-27T09:05:59Z</time>
      </trkpt>
      <trkpt lat="44.76759" lon="-0.1654">
        <ele>60</ele>
        <time>2016-09-27T09:06:10Z</time>
      </trkpt>
      <trkpt lat="44.76762" lon="-0.16594">
        <ele>59</ele>
        <time>2016-09-27T09:06:36Z</time>
      </trkpt>
      <trkpt lat="44.76771" lon="-0.16614">
        <ele>58.9</ele>
        <time>2016-09-27T09:06:48Z</time>
      </trkpt>
      <trkpt lat="44.76782" lon="-0.1662">
        <ele>58.6</ele>
        <time>2016-09-27T09:06:55Z</time>
      </trkpt>
      <trkpt lat="44.76797" lon="-0.16626">
        <ele>58.1</ele>
        <time>2016-09-27T09:07:06Z</time>
      </trkpt>
      <trkpt lat="44.76914" lon="-0.16653">
        <ele>59.7</ele>
        <time>2016-09-27T09:08:25Z</time>
      </trkpt>
      <trkpt lat="44.7693" lon="-0.16654">
        <ele>60.5</ele>
        <time>2016-09-27T09:08:35Z</time>
      </trkpt>
      <trkpt lat="44.76941" lon="-0.16648">
        <ele>60.9</ele>
        <time>2016-09-27T09:08:44Z</time>
      </trkpt>
      <trkpt lat="44.76952" lon="-0.16634">
        <ele>61.4</ele>
        <time>2016-09-27T09:08:53Z</time>
      </trkpt>
      <trkpt lat="44.77011" lon="-0.1655">
        <ele>63</ele>
        <time>2016-09-27T09:09:49Z</time>
      </trkpt>
      <trkpt lat="44.77019" lon="-0.1655">
        <ele>63</ele>
        <time>2016-09-27T09:09:55Z</time>
      </trkpt>
      <trkpt lat="44.77027" lon="-0.16555">
        <ele>63</ele>
        <time>2016-09-27T09:10:00Z</time>
      </trkpt>
      <trkpt lat="44.77047" lon="-0.16577">
        <ele>62.8</ele>
        <time>2016-09-27T09:10:18Z</time>
      </trkpt>
      <trkpt lat="44.77064" lon="-0.16589">
        <ele>63</ele>
        <time>2016-09-27T09:10:30Z</time>
      </trkpt>
      <trkpt lat="44.77075" lon="-0.16592">
        <ele>63</ele>
        <time>2016-09-27T09:10:38Z</time>
      </trkpt>
      <trkpt lat="44.77091" lon="-0.16592">
        <ele>62.8</ele>
        <time>2016-09-27T09:10:48Z</time>
      </trkpt>
      <trkpt lat="44.77121" lon="-0.16591">
        <ele>61.9</ele>
        <time>2016-09-27T09:11:09Z</time>
      </trkpt>
      <trkpt lat="44.77147" lon="-0.16595">
        <ele>60.8</ele>
        <time>2016-09-27T09:11:26Z</time>
      </trkpt>
      <trkpt lat="44.77173" lon="-0.16605">
        <ele>59.5</ele>
        <time>2016-09-27T09:11:44Z</time>
      </trkpt>
      <trkpt lat="44.77186" lon="-0.16617">
        <ele>59.5</ele>
        <time>2016-09-27T09:11:54Z</time>
      </trkpt>
      <trkpt lat="44.7722" lon="-0.16671">
        <ele>58.2</ele>
        <time>2016-09-27T09:12:28Z</time>
      </trkpt>
      <trkpt lat="44.77225" lon="-0.16689">
        <ele>57.9</ele>
        <time>2016-09-27T09:12:38Z</time>
      </trkpt>
      <trkpt lat="44.77226" lon="-0.16709">
        <ele>57.8</ele>
        <time>2016-09-27T09:12:47Z</time>
      </trkpt>
      <trkpt lat="44.77222" lon="-0.16737">
        <ele>57.5</ele>
        <time>2016-09-27T09:13:01Z</time>
      </trkpt>
      <trkpt lat="44.77201" lon="-0.16803">
        <ele>56.6</ele>
        <time>2016-09-27T09:13:35Z</time>
      </trkpt>
      <trkpt lat="44.77203" lon="-0.16824">
        <ele>56.4</ele>
        <time>2016-09-27T09:13:45Z</time>
      </trkpt>
      <trkpt lat="44.77218" lon="-0.16863">
        <ele>56.3</ele>
        <time>2016-09-27T09:14:06Z</time>
      </trkpt>
      <trkpt lat="44.77225" lon="-0.1687">
        <ele>55.8</ele>
        <time>2016-09-27T09:14:12Z</time>
      </trkpt>
      <trkpt lat="44.77237" lon="-0.16874">
        <ele>54.9</ele>
        <time>2016-09-27T09:14:20Z</time>
      </trkpt>
      <trkpt lat="44.77249" lon="-0.16871">
        <ele>54.1</ele>
        <time>2016-09-27T09:14:28Z</time>
      </trkpt>
      <trkpt lat="44.77259" lon="-0.16866">
        <ele>52.9</ele>
        <time>2016-09-27T09:14:36Z</time>
      </trkpt>
      <trkpt lat="44.77283" lon="-0.1684">
        <ele>51.5</ele>
        <time>2016-09-27T09:14:55Z</time>
      </trkpt>
      <trkpt lat="44.77291" lon="-0.16837">
        <ele>51.3</ele>
        <time>2016-09-27T09:15:01Z</time>
      </trkpt>
      <trkpt lat="44.77299" lon="-0.16839">
        <ele>50.7</ele>
        <time>2016-09-27T09:15:07Z</time>
      </trkpt>
      <trkpt lat="44.77309" lon="-0.16845">
        <ele>49.6</ele>
        <time>2016-09-27T09:15:14Z</time>
      </trkpt>
      <trkpt lat="44.77327" lon="-0.16862">
        <ele>46.3</ele>
        <time>2016-09-27T09:15:28Z</time>
      </trkpt>
      <trkpt lat="44.77347" lon="-0.16881">
        <ele>41.9</ele>
        <time>2016-09-27T09:15:44Z</time>
      </trkpt>
      <trkpt lat="44.77358" lon="-0.16888">
        <ele>39.5</ele>
        <time>2016-09-27T09:15:53Z</time>
      </trkpt>
      <trkpt lat="44.77385" lon="-0.16898">
        <ele>36</ele>
        <time>2016-09-27T09:16:11Z</time>
      </trkpt>
      <trkpt lat="44.77396" lon="-0.16903">
        <ele>34.2</ele>
        <time>2016-09-27T09:16:19Z</time>
      </trkpt>
      <trkpt lat="44.77485" lon="-0.16976">
        <ele>18.9</ele>
        <time>2016-09-27T09:17:27Z</time>
      </trkpt>
      <trkpt lat="44.77416" lon="-0.17063">
        <ele>19.8</ele>
        <time>2016-09-27T09:18:29Z</time>
      </trkpt>
      <trkpt lat="44.77343" lon="-0.17155">
        <ele>22.8</ele>
        <time>2016-09-27T09:19:35Z</time>
      </trkpt>
      <trkpt lat="44.77328" lon="-0.17166">
        <ele>23.9</ele>
        <time>2016-09-27T09:19:46Z</time>
      </trkpt>
      <trkpt lat="44.77291" lon="-0.17178">
        <ele>26.2</ele>
        <time>2016-09-27T09:20:11Z</time>
      </trkpt>
      <trkpt lat="44.77253" lon="-0.17188">
        <ele>27.4</ele>
        <time>2016-09-27T09:20:37Z</time>
      </trkpt>
      <trkpt lat="44.77228" lon="-0.17189">
        <ele>28.9</ele>
        <time>2016-09-27T09:20:54Z</time>
      </trkpt>
      <trkpt lat="44.77199" lon="-0.17184">
        <ele>31.6</ele>
        <time>2016-09-27T09:21:13Z</time>
      </trkpt>
      <trkpt lat="44.77133" lon="-0.17165">
        <ele>34</ele>
        <time>2016-09-27T09:21:58Z</time>
      </trkpt>
      <trkpt lat="44.77109" lon="-0.17166">
        <ele>32.2</ele>
        <time>2016-09-27T09:22:14Z</time>
      </trkpt>
      <trkpt lat="44.77014" lon="-0.17179">
        <ele>26.8</ele>
        <time>2016-09-27T09:23:18Z</time>
      </trkpt>
      <trkpt lat="44.7699" lon="-0.17178">
        <ele>25.4</ele>
        <time>2016-09-27T09:23:34Z</time>
      </trkpt>
      <trkpt lat="44.76964" lon="-0.17174">
        <ele>23.7</ele>
        <time>2016-09-27T09:23:51Z</time>
      </trkpt>
      <trkpt lat="44.7695" lon="-0.17176">
        <ele>22.7</ele>
        <time>2016-09-27T09:24:00Z</time>
      </trkpt>
      <trkpt lat="44.76938" lon="-0.17183">
        <ele>22</ele>
        <time>2016-09-27T09:24:09Z</time>
      </trkpt>
      <trkpt lat="44.76927" lon="-0.17192">
        <ele>22.3</ele>
        <time>2016-09-27T09:24:18Z</time>
      </trkpt>
      <trkpt lat="44.76868" lon="-0.17251">
        <ele>26.8</ele>
        <time>2016-09-27T09:25:06Z</time>
      </trkpt>
      <trkpt lat="44.76854" lon="-0.17259">
        <ele>26.5</ele>
        <time>2016-09-27T09:25:16Z</time>
      </trkpt>
      <trkpt lat="44.76839" lon="-0.17262">
        <ele>26.7</ele>
        <time>2016-09-27T09:25:26Z</time>
      </trkpt>
      <trkpt lat="44.76819" lon="-0.17258">
        <ele>27.8</ele>
        <time>2016-09-27T09:25:40Z</time>
      </trkpt>
      <trkpt lat="44.76791" lon="-0.17248">
        <ele>28.2</ele>
        <time>2016-09-27T09:25:59Z</time>
      </trkpt>
      <trkpt lat="44.76789" lon="-0.17238">
        <ele>29.1</ele>
        <time>2016-09-27T09:26:04Z</time>
      </trkpt>
      <trkpt lat="44.76839" lon="-0.17247">
        <ele>30.4</ele>
        <time>2016-09-27T09:26:38Z</time>
      </trkpt>
      <trkpt lat="44.76854" lon="-0.17242">
        <ele>30.5</ele>
        <time>2016-09-27T09:26:48Z</time>
      </trkpt>
      <trkpt lat="44.76863" lon="-0.17234">
        <ele>31.7</ele>
        <time>2016-09-27T09:26:55Z</time>
      </trkpt>
      <trkpt lat="44.76869" lon="-0.17217">
        <ele>33.2</ele>
        <time>2016-09-27T09:27:04Z</time>
      </trkpt>
      <trkpt lat="44.76868" lon="-0.17201">
        <ele>33.9</ele>
        <time>2016-09-27T09:27:12Z</time>
      </trkpt>
      <trkpt lat="44.76861" lon="-0.17179">
        <ele>35</ele>
        <time>2016-09-27T09:27:23Z</time>
      </trkpt>
      <trkpt lat="44.7685" lon="-0.1716">
        <ele>34.9</ele>
        <time>2016-09-27T09:27:35Z</time>
      </trkpt>
      <trkpt lat="44.76829" lon="-0.17129">
        <ele>36.5</ele>
        <time>2016-09-27T09:27:55Z</time>
      </trkpt>
      <trkpt lat="44.76817" lon="-0.17117">
        <ele>37.4</ele>
        <time>2016-09-27T09:28:05Z</time>
      </trkpt>
      <trkpt lat="44.76772" lon="-0.17132">
        <ele>41.5</ele>
        <time>2016-09-27T09:28:36Z</time>
      </trkpt>
      <trkpt lat="44.76761" lon="-0.17131">
        <ele>42.4</ele>
        <time>2016-09-27T09:28:43Z</time>
      </trkpt>
      <trkpt lat="44.76703" lon="-0.171">
        <ele>49.7</ele>
        <time>2016-09-27T09:29:24Z</time>
      </trkpt>
      <trkpt lat="44.76665" lon="-0.17087">
        <ele>52.8</ele>
        <time>2016-09-27T09:29:50Z</time>
      </trkpt>
      <trkpt lat="44.76645" lon="-0.17087">
        <ele>53.6</ele>
        <time>2016-09-27T09:30:04Z</time>
      </trkpt>
      <trkpt lat="44.76619" lon="-0.17073">
        <ele>54.7</ele>
        <time>2016-09-27T09:30:23Z</time>
      </trkpt>
      <trkpt lat="44.76592" lon="-0.17078">
        <ele>55.7</ele>
        <time>2016-09-27T09:30:40Z</time>
      </trkpt>
      <trkpt lat="44.76567" lon="-0.17077">
        <ele>56.6</ele>
        <time>2016-09-27T09:30:57Z</time>
      </trkpt>
      <trkpt lat="44.7655" lon="-0.17065">
        <ele>57.2</ele>
        <time>2016-09-27T09:31:10Z</time>
      </trkpt>
      <trkpt lat="44.76528" lon="-0.17074">
        <ele>58</ele>
        <time>2016-09-27T09:31:25Z</time>
      </trkpt>
    </trkseg>
  </trk>
</gpx>